Time;durP1;ratioP1;P1;durP2;ratioP2;P2;SDS_P1;SDS_P2;PMS_P1;PMS_P2;Temp;Humidity;BMP_temperature;BMP_pressure;BME280_temperature;BME280_humidity;BME280_pressure;Samples;Min_cycle;Max_cycle;Signal;HPM_P1;HPM_P2
2022/10/26 00:01:27;;;;;;;;;;;12.30;97.30;;;;;;4985034;28;19914;-68
2022/10/26 00:03:54;;;;;;;;;;;12.30;97.30;;;;;;5002147;28;20282;-69
2022/10/26 00:06:20;;;;;;;;;;;12.30;97.30;;;;;;4995190;28;19918;-68
2022/10/26 00:08:46;;;;;;;;;;;12.30;97.30;;;;;;4984748;28;19948;-68
2022/10/26 00:11:12;;;;;;;;;;;12.30;97.30;;;;;;4984730;28;19922;-69
2022/10/26 00:13:38;;;;;;;;;;;12.20;97.20;;;;;;4985189;28;19920;-69
2022/10/26 00:16:11;;;;;;;;;;;12.20;97.30;;;;;;4985188;28;19914;-68
2022/10/26 00:18:36;;;;;;;;;;;12.20;97.30;;;;;;4977291;28;20363;-68
2022/10/26 00:21:06;;;;;;;;;;;12.20;97.30;;;;;;4981771;28;19922;-69
2022/10/26 00:23:31;;;;;;;;;;;12.20;97.30;;;;;;4988339;28;20437;-69
2022/10/26 00:25:57;;;;;;;;;;;12.20;97.30;;;;;;4988633;28;19914;-69
2022/10/26 00:28:22;;;;;;;;;;;12.20;97.30;;;;;;4988701;28;20005;-69
2022/10/26 00:30:48;;;;;;;;;;;12.30;97.30;;;;;;4988734;28;20337;-68
2022/10/26 00:33:14;;;;;;;;;;;12.20;97.30;;;;;;4989198;28;20431;-68
2022/10/26 00:35:39;;;;;;;;;;;12.20;97.20;;;;;;4988125;28;19914;-69
2022/10/26 00:38:04;;;;;;;;;;;12.20;97.20;;;;;;4989217;28;19920;-69
2022/10/26 00:40:30;;;;;;;;;;;12.20;97.30;;;;;;4988058;28;19920;-69
2022/10/26 00:42:56;;;;;;;;;;;12.20;97.30;;;;;;4988349;28;19914;-69
2022/10/26 00:45:21;;;;;;;;;;;12.20;97.30;;;;;;4988468;28;19924;-69
2022/10/26 00:47:52;;;;;;;;;;;12.20;97.50;;;;;;4987921;28;20282;-68
2022/10/26 00:50:26;;;;;;;;;;;12.20;97.20;;;;;;4988097;28;19914;-69
2022/10/26 00:52:52;;;;;;;;;;;12.20;97.20;;;;;;4988286;28;19918;-68
2022/10/26 00:55:20;;;;;;;;;;;12.20;97.20;;;;;;4987915;28;19921;-68
2022/10/26 00:57:46;;;;;;;;;;;12.20;97.20;;;;;;4988300;28;19930;-68
2022/10/26 01:00:12;;;;;;;;;;;12.20;97.20;;;;;;4988075;28;19917;-68
2022/10/26 01:02:37;;;;;;;;;;;12.20;97.20;;;;;;4989110;28;19917;-69
2022/10/26 01:05:03;;;;;;;;;;;12.20;97.30;;;;;;4987719;28;20347;-69
2022/10/26 01:07:29;;;;;;;;;;;12.20;97.50;;;;;;4988136;28;19918;-69
2022/10/26 01:09:55;;;;;;;;;;;12.20;97.20;;;;;;4987942;28;19921;-68
2022/10/26 01:12:21;;;;;;;;;;;12.20;97.20;;;;;;4987700;28;19913;-69
2022/10/26 01:14:46;;;;;;;;;;;12.20;97.20;;;;;;4988402;28;19916;-69
2022/10/26 01:17:15;;;;;;;;;;;12.20;97.20;;;;;;4986712;28;19956;-69
2022/10/26 01:19:40;;;;;;;;;;;12.20;97.20;;;;;;4986962;28;20421;-68
2022/10/26 01:22:14;;;;;;;;;;;12.20;97.20;;;;;;4988040;28;20009;-69
2022/10/26 01:24:48;;;;;;;;;;;12.20;97.20;;;;;;4988090;28;19925;-69
2022/10/26 01:27:25;;;;;;;;;;;12.20;97.20;;;;;;4987717;28;20606;-68
2022/10/26 01:30:09;;;;;;;;;;;12.20;97.20;;;;;;4987349;28;19945;-68
2022/10/26 01:32:41;;;;;;;;;;;12.20;97.20;;;;;;4986429;28;19918;-68
2022/10/26 01:35:13;;;;;;;;;;;12.20;97.10;;;;;;4987956;28;19920;-69
2022/10/26 01:37:43;;;;;;;;;;;12.20;97.10;;;;;;4987949;28;20009;-69
2022/10/26 01:40:12;;;;;;;;;;;12.20;97.10;;;;;;4987416;28;19921;-69
2022/10/26 01:42:41;;;;;;;;;;;12.20;97.10;;;;;;4987222;28;20016;-68
2022/10/26 01:45:07;;;;;;;;;;;12.20;97.10;;;;;;4986830;28;19929;-68
2022/10/26 01:47:35;;;;;;;;;;;12.30;97.10;;;;;;4987843;28;20371;-69
2022/10/26 01:50:02;;;;;;;;;;;12.20;97.10;;;;;;4975127;28;19914;-68
2022/10/26 01:52:28;;;;;;;;;;;12.30;97.10;;;;;;4987075;28;20247;-69
2022/10/26 01:55:04;;;;;;;;;;;12.30;97.10;;;;;;4987184;28;19910;-69
2022/10/26 01:57:32;;;;;;;;;;;12.30;97.20;;;;;;4987086;28;20028;-69
2022/10/26 02:00:06;;;;;;;;;;;12.30;97.20;;;;;;4985983;28;19914;-69
2022/10/26 02:02:35;;;;;;;;;;;12.30;97.20;;;;;;4993003;28;19914;-69
2022/10/26 02:05:03;;;;;;;;;;;12.30;97.20;;;;;;5006958;28;20400;-68
2022/10/26 02:07:28;;;;;;;;;;;12.30;97.20;;;;;;5005844;28;19996;-68
2022/10/26 02:10:03;;;;;;;;;;;12.30;97.20;;;;;;4996209;28;19930;-68
2022/10/26 02:12:37;;;;;;;;;;;12.30;97.20;;;;;;4996602;28;20294;-69
2022/10/26 02:15:06;;;;;;;;;;;12.20;97.20;;;;;;4989848;28;19983;-68
2022/10/26 02:17:34;;;;;;;;;;;12.30;97.20;;;;;;4986673;28;20017;-69
2022/10/26 02:20:00;;;;;;;;;;;12.30;97.20;;;;;;4967148;28;19914;-68
2022/10/26 02:22:27;;;;;;;;;;;12.30;97.20;;;;;;4985664;28;20598;-69
2022/10/26 02:24:54;;;;;;;;;;;12.30;97.20;;;;;;4986744;28;19922;-69
2022/10/26 02:27:28;;;;;;;;;;;12.30;97.20;;;;;;4986164;28;20645;-69
2022/10/26 02:29:55;;;;;;;;;;;12.30;97.20;;;;;;4985904;28;19917;-69
2022/10/26 02:32:22;;;;;;;;;;;12.30;97.20;;;;;;4991572;28;19972;-69
2022/10/26 02:34:49;;;;;;;;;;;12.30;97.30;;;;;;5006063;28;19917;-69
2022/10/26 02:37:17;;;;;;;;;;;12.30;97.30;;;;;;4996837;28;19921;-68
2022/10/26 02:39:43;;;;;;;;;;;12.30;97.30;;;;;;4986415;28;20052;-68
2022/10/26 02:42:09;;;;;;;;;;;12.30;97.30;;;;;;4984112;28;19918;-69
2022/10/26 02:44:43;;;;;;;;;;;12.30;97.30;;;;;;4986212;28;19992;-69
2022/10/26 02:47:08;;;;;;;;;;;12.30;97.30;;;;;;4986226;28;19921;-69
2022/10/26 02:49:34;;;;;;;;;;;12.30;97.30;;;;;;4973913;28;19920;-69
2022/10/26 02:52:06;;;;;;;;;;;12.30;97.30;;;;;;4985113;28;20008;-68
2022/10/26 02:54:37;;;;;;;;;;;12.30;97.40;;;;;;4985989;28;19967;-68
2022/10/26 02:57:12;;;;;;;;;;;12.30;97.30;;;;;;4986095;28;20593;-68
2022/10/26 02:59:40;;;;;;;;;;;12.30;97.30;;;;;;4984494;28;19910;-69
2022/10/26 03:02:05;;;;;;;;;;;12.30;97.30;;;;;;4989567;28;19945;-69
2022/10/26 03:04:31;;;;;;;;;;;12.30;97.30;;;;;;5005704;28;20028;-68
2022/10/26 03:06:57;;;;;;;;;;;12.30;97.30;;;;;;5005596;28;20004;-68
2022/10/26 03:09:23;;;;;;;;;;;12.30;97.30;;;;;;4986777;28;20306;-69
2022/10/26 03:11:48;;;;;;;;;;;12.30;97.30;;;;;;4990569;28;19914;-68
2022/10/26 03:14:14;;;;;;;;;;;12.30;97.30;;;;;;4993684;28;19910;-68
2022/10/26 03:16:40;;;;;;;;;;;12.30;97.30;;;;;;4985867;28;20604;-68
2022/10/26 03:19:05;;;;;;;;;;;12.30;97.30;;;;;;4973398;28;19921;-69
2022/10/26 03:21:31;;;;;;;;;;;12.30;97.30;;;;;;4966704;28;19914;-68
2022/10/26 03:23:56;;;;;;;;;;;12.30;97.30;;;;;;4966838;28;19918;-69
2022/10/26 03:26:22;;;;;;;;;;;12.30;97.30;;;;;;4972013;28;20020;-68
2022/10/26 03:28:47;;;;;;;;;;;12.30;97.30;;;;;;4985594;28;20016;-68
2022/10/26 03:31:13;;;;;;;;;;;12.30;97.20;;;;;;4984033;28;19924;-68
2022/10/26 03:33:38;;;;;;;;;;;12.30;97.20;;;;;;5002098;28;19913;-69
2022/10/26 03:36:04;;;;;;;;;;;12.30;97.20;;;;;;5005273;28;19916;-69
2022/10/26 03:38:29;;;;;;;;;;;12.30;97.20;;;;;;5005384;28;19913;-68
2022/10/26 03:40:55;;;;;;;;;;;12.40;97.30;;;;;;5003460;28;19913;-69
2022/10/26 03:43:20;;;;;;;;;;;12.40;97.20;;;;;;4994537;28;20526;-69
2022/10/26 03:45:46;;;;;;;;;;;12.40;97.20;;;;;;4985173;28;19965;-69
2022/10/26 03:48:11;;;;;;;;;;;12.40;97.20;;;;;;4980277;28;19914;-68
2022/10/26 03:50:37;;;;;;;;;;;12.30;97.20;;;;;;4978192;28;20362;-69
2022/10/26 03:53:02;;;;;;;;;;;12.30;97.20;;;;;;4985259;28;19917;-68
2022/10/26 03:55:28;;;;;;;;;;;12.40;97.20;;;;;;4986843;28;19917;-69
2022/10/26 03:57:53;;;;;;;;;;;12.30;97.20;;;;;;4988693;28;20442;-70
2022/10/26 04:00:19;;;;;;;;;;;12.30;97.20;;;;;;4988333;28;19945;-68
2022/10/26 04:02:50;;;;;;;;;;;12.30;97.20;;;;;;4998343;28;19920;-69
2022/10/26 04:05:15;;;;;;;;;;;12.40;97.20;;;;;;5008821;28;19995;-68
2022/10/26 04:07:42;;;;;;;;;;;12.40;97.20;;;;;;4992932;28;19917;-69
2022/10/26 04:10:07;;;;;;;;;;;12.40;97.20;;;;;;4988950;28;19928;-68
2022/10/26 04:12:35;;;;;;;;;;;12.40;97.20;;;;;;4989289;28;19918;-68
2022/10/26 04:15:00;;;;;;;;;;;12.40;97.20;;;;;;4989177;28;19920;-69
2022/10/26 04:17:26;;;;;;;;;;;12.40;97.20;;;;;;4988885;28;19914;-68
2022/10/26 04:19:51;;;;;;;;;;;12.40;97.20;;;;;;4970449;28;19917;-69
2022/10/26 04:22:17;;;;;;;;;;;12.40;97.20;;;;;;4988109;28;19972;-68
2022/10/26 04:24:42;;;;;;;;;;;12.40;97.20;;;;;;4989113;28;20075;-68
2022/10/26 04:27:08;;;;;;;;;;;12.40;97.20;;;;;;4989012;28;19924;-69
2022/10/26 04:29:33;;;;;;;;;;;12.40;97.20;;;;;;4988757;28;19914;-69
2022/10/26 04:31:59;;;;;;;;;;;12.40;97.20;;;;;;4991913;28;19936;-68
2022/10/26 04:34:24;;;;;;;;;;;12.40;97.10;;;;;;4999892;28;19984;-69
2022/10/26 04:36:49;;;;;;;;;;;12.40;97.10;;;;;;4988473;28;19918;-69
2022/10/26 04:39:15;;;;;;;;;;;12.40;97.20;;;;;;4988122;28;19964;-69
2022/10/26 04:41:41;;;;;;;;;;;12.50;97.10;;;;;;4986824;28;19920;-68
2022/10/26 04:44:06;;;;;;;;;;;12.50;97.10;;;;;;4986281;28;19925;-68
2022/10/26 04:46:32;;;;;;;;;;;12.50;97.10;;;;;;4987064;28;19988;-69
2022/10/26 04:48:57;;;;;;;;;;;12.50;97.10;;;;;;4977030;28;19914;-68
2022/10/26 04:51:23;;;;;;;;;;;12.50;97.10;;;;;;4986612;28;19964;-68
2022/10/26 04:53:48;;;;;;;;;;;12.50;97.10;;;;;;4987163;28;19910;-68
2022/10/26 04:56:13;;;;;;;;;;;12.50;97.10;;;;;;4988459;28;19917;-68
2022/10/26 04:58:39;;;;;;;;;;;12.50;97.20;;;;;;4987774;28;20683;-68
2022/10/26 05:01:04;;;;;;;;;;;12.50;97.10;;;;;;4987781;28;19925;-68
2022/10/26 05:03:30;;;;;;;;;;;12.50;97.10;;;;;;5002938;28;20496;-68
2022/10/26 05:05:58;;;;;;;;;;;12.60;97.10;;;;;;5007966;28;19914;-68
2022/10/26 05:08:26;;;;;;;;;;;12.50;97.10;;;;;;4993289;28;20385;-68
2022/10/26 05:10:51;;;;;;;;;;;12.50;97.00;;;;;;4987520;28;19928;-68
2022/10/26 05:13:17;;;;;;;;;;;12.60;97.10;;;;;;4987591;28;19913;-68
2022/10/26 05:15:44;;;;;;;;;;;12.60;97.10;;;;;;4987605;28;20304;-68
2022/10/26 05:18:09;;;;;;;;;;;12.60;97.10;;;;;;4982768;28;20012;-68
2022/10/26 05:20:35;;;;;;;;;;;12.60;97.10;;;;;;4967901;28;19914;-68
2022/10/26 05:23:02;;;;;;;;;;;12.60;97.10;;;;;;4968408;28;20567;-69
2022/10/26 05:25:29;;;;;;;;;;;12.60;97.10;;;;;;4986303;28;19928;-68
2022/10/26 05:27:58;;;;;;;;;;;12.60;97.10;;;;;;4987539;28;19977;-68
2022/10/26 05:30:23;;;;;;;;;;;12.60;97.10;;;;;;4985706;28;19967;-68
2022/10/26 05:32:59;;;;;;;;;;;12.60;97.00;;;;;;4997461;28;19910;-69
2022/10/26 05:35:25;;;;;;;;;;;12.60;97.10;;;;;;5006825;28;19963;-69
2022/10/26 05:37:50;;;;;;;;;;;12.60;97.40;;;;;;5007147;28;20678;-69
2022/10/26 05:40:16;;;;;;;;;;;12.60;97.30;;;;;;5002915;28;19918;-70
2022/10/26 05:42:42;;;;;;;;;;;12.60;97.10;;;;;;4987421;28;19924;-70
2022/10/26 05:45:08;;;;;;;;;;;12.70;97.00;;;;;;4986578;28;19918;-69
2022/10/26 05:47:37;;;;;;;;;;;12.60;97.00;;;;;;4986648;28;19914;-69
2022/10/26 05:50:02;;;;;;;;;;;12.70;97.00;;;;;;4975424;28;19914;-69
2022/10/26 05:52:28;;;;;;;;;;;12.70;97.00;;;;;;4987124;28;19914;-70
2022/10/26 05:54:53;;;;;;;;;;;12.70;97.00;;;;;;4986473;28;19969;-69
2022/10/26 05:57:19;;;;;;;;;;;12.70;97.00;;;;;;4985140;28;20047;-69
2022/10/26 05:59:45;;;;;;;;;;;12.70;97.00;;;;;;4986758;28;19945;-69
2022/10/26 06:02:31;;;;;;;;;;;12.70;97.00;;;;;;4990069;28;19918;-70
2022/10/26 06:05:01;;;;;;;;;;;12.70;97.10;;;;;;5006315;28;19925;-69
2022/10/26 06:07:27;;;;;;;;;;;12.70;97.00;;;;;;5006606;28;20083;-70
2022/10/26 06:09:52;;;;;;;;;;;12.70;97.00;;;;;;5006436;28;20004;-69
2022/10/26 06:12:18;;;;;;;;;;;12.70;97.00;;;;;;5006888;28;20382;-70
2022/10/26 06:14:43;;;;;;;;;;;12.70;97.00;;;;;;4994419;28;19918;-70
2022/10/26 06:17:25;;;;;;;;;;;12.70;97.10;;;;;;4986745;28;19914;-69
2022/10/26 06:19:56;;;;;;;;;;;12.70;97.00;;;;;;4968420;28;19925;-69
2022/10/26 06:22:31;;;;;;;;;;;12.70;97.00;;;;;;4967598;28;20008;-69
2022/10/26 06:24:59;;;;;;;;;;;12.70;97.00;;;;;;4971962;28;19971;-70
2022/10/26 06:27:24;;;;;;;;;;;12.70;97.00;;;;;;4990507;28;19933;-69
2022/10/26 06:29:50;;;;;;;;;;;12.70;97.00;;;;;;5003702;28;20613;-69
2022/10/26 06:32:16;;;;;;;;;;;12.70;97.00;;;;;;4991857;28;20026;-69
2022/10/26 06:34:46;;;;;;;;;;;12.70;97.00;;;;;;4987151;28;19914;-69
2022/10/26 06:37:12;;;;;;;;;;;12.70;96.90;;;;;;4986601;28;20630;-69
2022/10/26 06:39:40;;;;;;;;;;;12.70;96.90;;;;;;4984697;28;19920;-69
2022/10/26 06:42:08;;;;;;;;;;;12.70;96.90;;;;;;4986525;28;19920;-69
2022/10/26 06:44:33;;;;;;;;;;;12.70;96.90;;;;;;4986284;28;20298;-69
2022/10/26 06:47:01;;;;;;;;;;;12.70;96.90;;;;;;4986065;28;19917;-69
2022/10/26 06:49:30;;;;;;;;;;;12.70;96.90;;;;;;4997032;28;19914;-69
2022/10/26 06:52:00;;;;;;;;;;;12.80;96.90;;;;;;4986389;28;19920;-69
2022/10/26 06:54:44;;;;;;;;;;;12.80;96.90;;;;;;4986299;28;20829;-69
2022/10/26 06:57:10;;;;;;;;;;;12.80;96.90;;;;;;4988083;28;19916;-69
2022/10/26 06:59:37;;;;;;;;;;;12.80;96.90;;;;;;5005700;28;19918;-69
2022/10/26 07:02:03;;;;;;;;;;;12.80;96.90;;;;;;5006010;28;19913;-70
2022/10/26 07:04:28;;;;;;;;;;;12.80;96.80;;;;;;4990030;28;19922;-70
2022/10/26 07:06:55;;;;;;;;;;;12.80;96.90;;;;;;4986366;28;19914;-71
2022/10/26 07:09:21;;;;;;;;;;;12.80;96.80;;;;;;4985459;28;19973;-70
2022/10/26 07:11:47;;;;;;;;;;;12.80;96.90;;;;;;4985802;28;19909;-70
2022/10/26 07:14:12;;;;;;;;;;;12.80;96.80;;;;;;4985137;28;19917;-70
2022/10/26 07:16:38;;;;;;;;;;;12.80;96.90;;;;;;4984778;28;20397;-69
2022/10/26 07:19:03;;;;;;;;;;;12.90;96.80;;;;;;4974777;28;19941;-69
2022/10/26 07:21:29;;;;;;;;;;;12.90;96.80;;;;;;4985756;28;19937;-69
2022/10/26 07:23:55;;;;;;;;;;;12.90;96.80;;;;;;4985723;28;20008;-69
2022/10/26 07:26:21;;;;;;;;;;;12.90;96.80;;;;;;4986185;28;19973;-70
2022/10/26 07:28:48;;;;;;;;;;;12.90;96.80;;;;;;5000315;28;19914;-69
2022/10/26 07:31:13;;;;;;;;;;;13.00;96.80;;;;;;4999158;28;19972;-69
2022/10/26 07:33:40;;;;;;;;;;;13.00;96.80;;;;;;5002137;28;20418;-69
2022/10/26 07:36:07;;;;;;;;;;;13.00;96.70;;;;;;5005725;28;19913;-69
2022/10/26 07:38:33;;;;;;;;;;;13.00;96.70;;;;;;5005142;28;20661;-69
2022/10/26 07:40:58;;;;;;;;;;;13.00;96.70;;;;;;5004767;28;19920;-69
2022/10/26 07:43:23;;;;;;;;;;;13.00;96.70;;;;;;5005026;28;19909;-69
2022/10/26 07:45:50;;;;;;;;;;;13.10;96.70;;;;;;4988321;28;19918;-69
2022/10/26 07:48:15;;;;;;;;;;;13.10;96.70;;;;;;4979964;28;20420;-69
2022/10/26 07:50:41;;;;;;;;;;;13.10;96.60;;;;;;4978843;28;19967;-69
2022/10/26 07:53:06;;;;;;;;;;;13.10;96.60;;;;;;4985318;28;19914;-69
2022/10/26 07:55:32;;;;;;;;;;;13.10;96.60;;;;;;4985212;28;19925;-69
2022/10/26 07:57:57;;;;;;;;;;;13.20;96.70;;;;;;4993514;28;19937;-69
2022/10/26 08:00:23;;;;;;;;;;;13.20;96.60;;;;;;5004986;28;20004;-69
2022/10/26 08:02:48;;;;;;;;;;;13.20;96.60;;;;;;4995126;28;20435;-69
2022/10/26 08:05:14;;;;;;;;;;;13.20;96.60;;;;;;4985097;28;20314;-69
2022/10/26 08:07:41;;;;;;;;;;;13.20;96.60;;;;;;4985319;28;19914;-69
2022/10/26 08:10:06;;;;;;;;;;;13.20;96.70;;;;;;4985454;28;20417;-68
2022/10/26 08:12:32;;;;;;;;;;;13.20;96.60;;;;;;4998280;28;19913;-69
2022/10/26 08:14:57;;;;;;;;;;;13.20;96.60;;;;;;4988051;28;19949;-69
2022/10/26 08:17:23;;;;;;;;;;;13.30;96.70;;;;;;4985121;28;19943;-69
2022/10/26 08:19:48;;;;;;;;;;;13.30;96.60;;;;;;4988977;28;19956;-69
2022/10/26 08:22:14;;;;;;;;;;;13.30;96.70;;;;;;4985331;28;19914;-69
2022/10/26 08:24:39;;;;;;;;;;;13.30;96.60;;;;;;4985266;28;19917;-69
2022/10/26 08:27:05;;;;;;;;;;;13.30;96.60;;;;;;4985856;28;20649;-69
2022/10/26 08:29:31;;;;;;;;;;;13.40;96.70;;;;;;5004475;28;19988;-68
2022/10/26 08:31:56;;;;;;;;;;;13.40;96.70;;;;;;4994229;28;19914;-69
2022/10/26 08:34:22;;;;;;;;;;;13.40;96.60;;;;;;5000650;28;19925;-69
2022/10/26 08:36:49;;;;;;;;;;;13.40;96.60;;;;;;4983914;28;19913;-69
2022/10/26 08:39:14;;;;;;;;;;;13.40;96.60;;;;;;4982544;28;19957;-69
2022/10/26 08:41:44;;;;;;;;;;;13.40;96.60;;;;;;4987188;28;19918;-69
2022/10/26 08:44:36;;;;;;;;;;;13.40;96.60;;;;;;4988815;28;20008;-69
2022/10/26 08:47:08;;;;;;;;;;;13.50;96.70;;;;;;4975928;28;19921;-69
2022/10/26 08:49:41;;;;;;;;;;;13.50;96.60;;;;;;4987992;28;19914;-69
2022/10/26 08:52:10;;;;;;;;;;;13.50;96.60;;;;;;4988951;28;19972;-69
2022/10/26 08:54:39;;;;;;;;;;;13.50;96.70;;;;;;4988372;28;20028;-69
2022/10/26 08:57:12;;;;;;;;;;;13.50;96.70;;;;;;4989230;28;19914;-69
2022/10/26 08:59:41;;;;;;;;;;;13.60;96.70;;;;;;5007675;28;19909;-69
2022/10/26 09:02:11;;;;;;;;;;;13.60;96.60;;;;;;4997111;28;19924;-70
2022/10/26 09:04:36;;;;;;;;;;;13.60;96.60;;;;;;5007748;28;19956;-69
2022/10/26 09:07:15;;;;;;;;;;;13.60;96.60;;;;;;5008046;28;20385;-69
2022/10/26 09:09:53;;;;;;;;;;;13.70;96.60;;;;;;4993575;28;19932;-69
2022/10/26 09:12:30;;;;;;;;;;;13.70;97.00;;;;;;4988195;28;20312;-69
2022/10/26 09:15:03;;;;;;;;;;;13.70;96.90;;;;;;4988067;28;19914;-69
2022/10/26 09:17:32;;;;;;;;;;;13.70;96.60;;;;;;4987993;28;19921;-69
2022/10/26 09:20:12;;;;;;;;;;;13.80;96.70;;;;;;4988038;28;19914;-69
2022/10/26 09:22:47;;;;;;;;;;;13.80;96.50;;;;;;4987853;28;19987;-69
2022/10/26 09:25:12;;;;;;;;;;;13.80;96.40;;;;;;4987920;28;20446;-68
2022/10/26 09:27:41;;;;;;;;;;;13.90;96.50;;;;;;4993167;28;20055;-69
2022/10/26 09:30:17;;;;;;;;;;;13.90;96.40;;;;;;5007000;28;19914;-69
2022/10/26 09:32:45;;;;;;;;;;;13.90;96.30;;;;;;5006225;28;19988;-69
2022/10/26 09:35:16;;;;;;;;;;;14.00;96.40;;;;;;4993073;28;20375;-68
2022/10/26 09:37:45;;;;;;;;;;;14.00;96.40;;;;;;4986564;28;19921;-69
2022/10/26 09:40:17;;;;;;;;;;;14.00;96.30;;;;;;4986621;28;19914;-68
2022/10/26 09:42:48;;;;;;;;;;;14.10;96.30;;;;;;4986379;28;19918;-69
2022/10/26 09:45:19;;;;;;;;;;;14.00;96.30;;;;;;4986486;28;20009;-69
2022/10/26 09:47:48;;;;;;;;;;;14.10;96.20;;;;;;4986187;28;19921;-69
2022/10/26 09:50:17;;;;;;;;;;;14.10;96.30;;;;;;4976942;28;20020;-69
2022/10/26 09:52:43;;;;;;;;;;;14.10;96.30;;;;;;5001302;28;19922;-69
2022/10/26 09:55:12;;;;;;;;;;;14.10;96.30;;;;;;4987560;28;20020;-69
2022/10/26 09:57:41;;;;;;;;;;;14.20;96.40;;;;;;4993016;28;19921;-69
2022/10/26 10:00:14;;;;;;;;;;;14.20;96.40;;;;;;5006449;28;19920;-70
2022/10/26 10:02:44;;;;;;;;;;;14.30;96.40;;;;;;5006359;28;19921;-69
2022/10/26 10:05:23;;;;;;;;;;;14.30;96.20;;;;;;5003264;28;19922;-69
2022/10/26 10:07:49;;;;;;;;;;;14.40;96.00;;;;;;4985692;28;20012;-69
2022/10/26 10:10:18;;;;;;;;;;;14.50;96.20;;;;;;4986798;28;20016;-69
2022/10/26 10:12:45;;;;;;;;;;;14.50;96.00;;;;;;4986767;28;20004;-69
2022/10/26 10:15:16;;;;;;;;;;;14.50;95.90;;;;;;4986860;28;20012;-69
2022/10/26 10:17:45;;;;;;;;;;;14.50;96.00;;;;;;4986025;28;19914;-69
2022/10/26 10:20:16;;;;;;;;;;;14.60;95.90;;;;;;4996733;28;19921;-70
2022/10/26 10:22:53;;;;;;;;;;;14.60;96.00;;;;;;5006291;28;19914;-69
2022/10/26 10:25:23;;;;;;;;;;;14.60;95.80;;;;;;4988690;28;19925;-69
2022/10/26 10:27:53;;;;;;;;;;;14.70;95.90;;;;;;4993060;28;19913;-69
2022/10/26 10:30:22;;;;;;;;;;;14.70;95.90;;;;;;4996021;28;19952;-69
2022/10/26 10:33:02;;;;;;;;;;;14.80;96.10;;;;;;4977798;28;19961;-70
2022/10/26 10:35:28;;;;;;;;;;;14.80;96.10;;;;;;4986581;28;19941;-69
2022/10/26 10:37:54;;;;;;;;;;;14.80;96.00;;;;;;4986449;28;20004;-69
2022/10/26 10:40:21;;;;;;;;;;;14.90;96.00;;;;;;4985701;28;19997;-69
2022/10/26 10:42:47;;;;;;;;;;;15.00;95.90;;;;;;4986724;28;19913;-69
2022/10/26 10:45:21;;;;;;;;;;;15.00;95.80;;;;;;4986288;28;19937;-69
2022/10/26 10:48:04;;;;;;;;;;;15.00;95.90;;;;;;4986418;28;19920;-69
2022/10/26 10:50:31;;;;;;;;;;;15.00;95.70;;;;;;4985909;28;19914;-69
2022/10/26 10:53:12;;;;;;;;;;;15.10;95.70;;;;;;4986285;28;20378;-69
2022/10/26 10:55:41;;;;;;;;;;;15.10;95.80;;;;;;4986034;28;20389;-69
2022/10/26 10:58:24;;;;;;;;;;;15.20;96.00;;;;;;4995322;28;19960;-69
2022/10/26 11:00:49;;;;;;;;;;;15.20;95.80;;;;;;5005418;28;19939;-69
2022/10/26 11:03:20;;;;;;;;;;;15.20;95.90;;;;;;5005524;28;20043;-69
2022/10/26 11:05:49;;;;;;;;;;;15.30;95.90;;;;;;5005251;28;19921;-69
2022/10/26 11:08:34;;;;;;;;;;;15.30;96.00;;;;;;5003395;28;19920;-69
2022/10/26 11:10:59;;;;;;;;;;;15.40;95.90;;;;;;4985433;28;19926;-69
2022/10/26 11:13:37;;;;;;;;;;;15.40;96.00;;;;;;4985985;28;19913;-69
2022/10/26 11:16:04;;;;;;;;;;;15.40;96.10;;;;;;4985684;28;20251;-69
2022/10/26 11:18:33;;;;;;;;;;;15.40;96.20;;;;;;4984220;28;19968;-69
2022/10/26 11:21:14;;;;;;;;;;;15.50;96.10;;;;;;4984222;28;20322;-69
2022/10/26 11:23:44;;;;;;;;;;;15.50;96.00;;;;;;4985790;28;19914;-69
2022/10/26 11:26:14;;;;;;;;;;;15.50;96.10;;;;;;4985895;28;19917;-69
2022/10/26 11:28:45;;;;;;;;;;;15.60;96.00;;;;;;4988469;28;20323;-69
2022/10/26 11:31:13;;;;;;;;;;;15.60;96.10;;;;;;4985457;28;19913;-69
2022/10/26 11:33:40;;;;;;;;;;;15.70;96.00;;;;;;5000460;28;19914;-69
2022/10/26 11:36:08;;;;;;;;;;;15.70;96.10;;;;;;5004857;28;19936;-69
2022/10/26 11:38:36;;;;;;;;;;;15.80;96.20;;;;;;5000402;28;19937;-70
2022/10/26 11:41:02;;;;;;;;;;;15.80;96.00;;;;;;4984953;28;20036;-69
2022/10/26 11:43:37;;;;;;;;;;;15.90;96.00;;;;;;4985513;28;20004;-69
2022/10/26 11:46:04;;;;;;;;;;;15.90;96.30;;;;;;4985197;28;19984;-69
2022/10/26 11:48:34;;;;;;;;;;;16.00;96.20;;;;;;4985759;28;19913;-69
2022/10/26 11:51:00;;;;;;;;;;;16.00;96.20;;;;;;4983537;28;19913;-69
2022/10/26 11:53:30;;;;;;;;;;;16.10;96.10;;;;;;4983725;28;19949;-69
2022/10/26 11:55:57;;;;;;;;;;;16.10;96.20;;;;;;4985674;28;19917;-69
2022/10/26 11:58:23;;;;;;;;;;;16.20;95.90;;;;;;4997119;28;19953;-69
2022/10/26 12:00:51;;;;;;;;;;;16.20;96.20;;;;;;4991984;28;19918;-69
2022/10/26 12:03:24;;;;;;;;;;;16.20;96.20;;;;;;4997764;28;20011;-69
2022/10/26 12:05:53;;;;;;;;;;;16.30;96.30;;;;;;5004608;28;19928;-70
2022/10/26 12:08:35;;;;;;;;;;;16.40;96.40;;;;;;5002277;28;19944;-70
2022/10/26 12:11:19;;;;;;;;;;;16.50;96.50;;;;;;4985014;28;19922;-70
2022/10/26 12:13:51;;;;;;;;;;;16.40;96.50;;;;;;4984943;28;19909;-70
2022/10/26 12:16:21;;;;;;;;;;;16.50;96.60;;;;;;4981423;28;19922;-70
2022/10/26 12:18:51;;;;;;;;;;;16.60;96.60;;;;;;4979792;28;19914;-69
2022/10/26 12:21:17;;;;;;;;;;;16.50;96.40;;;;;;4988393;28;19949;-69
2022/10/26 12:24:12;;;;;;;;;;;16.60;96.50;;;;;;4988620;28;19980;-69
2022/10/26 12:26:38;;;;;;;;;;;16.70;96.60;;;;;;4988012;28;19950;-69
2022/10/26 12:29:04;;;;;;;;;;;16.60;96.70;;;;;;4983763;28;20475;-69
2022/10/26 12:31:35;;;;;;;;;;;16.70;96.70;;;;;;4968715;28;19914;-69
2022/10/26 12:34:01;;;;;;;;;;;16.70;96.90;;;;;;4998473;28;20537;-70
2022/10/26 12:36:45;;;;;;;;;;;16.70;96.80;;;;;;4987026;28;19920;-70
2022/10/26 12:39:29;;;;;;;;;;;16.70;96.70;;;;;;4987811;28;19913;-69
2022/10/26 12:41:56;;;;;;;;;;;16.80;96.80;;;;;;5003021;28;19913;-69
2022/10/26 12:44:39;;;;;;;;;;;16.90;96.70;;;;;;4987450;28;19918;-69
2022/10/26 12:47:04;;;;;;;;;;;16.80;96.70;;;;;;4988033;28;20012;-69
2022/10/26 12:49:49;;;;;;;;;;;16.90;96.70;;;;;;4975045;28;20598;-69
2022/10/26 12:52:19;;;;;;;;;;;16.90;96.70;;;;;;4987496;28;19914;-70
2022/10/26 12:54:50;;;;;;;;;;;17.00;96.70;;;;;;4985881;28;20283;-69
2022/10/26 12:57:23;;;;;;;;;;;17.00;96.80;;;;;;4989517;28;19961;-69
2022/10/26 13:00:11;;;;;;;;;;;17.00;96.80;;;;;;4987795;28;19924;-69
2022/10/26 13:02:43;;;;;;;;;;;17.10;96.90;;;;;;4994946;28;19941;-69
2022/10/26 13:05:27;;;;;;;;;;;17.10;97.00;;;;;;4994232;28;19952;-69
2022/10/26 13:07:59;;;;;;;;;;;17.20;97.00;;;;;;4987657;28;20009;-69
2022/10/26 13:10:25;;;;;;;;;;;17.10;96.80;;;;;;4967130;28;19929;-69
2022/10/26 13:12:55;;;;;;;;;;;17.20;96.60;;;;;;4978482;28;19926;-69
2022/10/26 13:15:22;;;;;;;;;;;17.30;96.40;;;;;;5007011;28;20426;-69
2022/10/26 13:18:00;;;;;;;;;;;17.20;96.60;;;;;;4991399;28;19922;-69
2022/10/26 13:20:25;;;;;;;;;;;17.30;96.50;;;;;;5004693;28;19964;-69
2022/10/26 13:22:51;;;;;;;;;;;17.30;96.70;;;;;;5006464;28;20518;-70
2022/10/26 13:25:29;;;;;;;;;;;17.30;96.30;;;;;;4993997;28;19936;-70
2022/10/26 13:28:03;;;;;;;;;;;17.40;96.30;;;;;;5005095;28;20084;-69
2022/10/26 13:30:31;;;;;;;;;;;17.40;96.60;;;;;;5006175;28;19913;-69
2022/10/26 13:32:58;;;;;;;;;;;17.40;96.20;;;;;;5006086;28;19914;-69
2022/10/26 13:35:24;;;;;;;;;;;17.40;96.50;;;;;;4992728;28;19913;-69
2022/10/26 13:37:50;;;;;;;;;;;17.50;96.50;;;;;;4986954;28;19921;-69
2022/10/26 13:40:17;;;;;;;;;;;17.40;96.50;;;;;;4994534;28;19924;-70
2022/10/26 13:43:03;;;;;;;;;;;17.50;96.80;;;;;;5006220;28;19917;-69
2022/10/26 13:45:47;;;;;;;;;;;17.50;96.50;;;;;;5005759;28;20588;-69
2022/10/26 13:48:15;;;;;;;;;;;17.50;96.30;;;;;;5000300;28;19925;-69
2022/10/26 13:50:48;;;;;;;;;;;17.50;96.50;;;;;;4986283;28;19960;-69
2022/10/26 13:53:20;;;;;;;;;;;17.50;96.50;;;;;;4987139;28;20379;-70
2022/10/26 13:56:00;;;;;;;;;;;17.60;96.60;;;;;;4986499;28;20609;-69
2022/10/26 13:58:41;;;;;;;;;;;17.50;96.60;;;;;;4997955;28;19953;-69
2022/10/26 14:01:20;;;;;;;;;;;17.60;96.50;;;;;;5005288;28;19918;-69
2022/10/26 14:03:47;;;;;;;;;;;17.60;96.60;;;;;;5006021;28;19913;-69
2022/10/26 14:06:13;;;;;;;;;;;17.60;96.70;;;;;;5005335;28;19956;-70
2022/10/26 14:08:39;;;;;;;;;;;17.60;96.70;;;;;;5000518;28;19995;-70
2022/10/26 14:11:04;;;;;;;;;;;17.60;96.60;;;;;;4986090;28;19929;-70
2022/10/26 14:13:33;;;;;;;;;;;17.60;96.70;;;;;;4986702;28;19914;-69
2022/10/26 14:15:58;;;;;;;;;;;17.60;96.90;;;;;;4986422;28;19918;-70
2022/10/26 14:18:28;;;;;;;;;;;17.60;96.80;;;;;;4986495;28;19920;-69
2022/10/26 14:20:59;;;;;;;;;;;17.60;96.90;;;;;;4978344;28;19925;-69
2022/10/26 14:23:32;;;;;;;;;;;17.60;96.90;;;;;;4986306;28;19914;-69
2022/10/26 14:25:57;;;;;;;;;;;17.60;96.80;;;;;;4985673;28;19980;-69